PILOTS ONLINE: 497    ATC ONLINE: 74

KFOE

Forbes Field

Location

IATA FOE
City Topeka
Country  United States
Latitude 38° 57' 3" N
Longitude 95° 39' 48" W
Elevation 1078 ft
Type Medium Airport

Map

Weather

METAR
2014/09/20 11:53
KFOE 201153Z 19007KT 4SM BR CLR 20/19 A2995 RMK AO2 SLP132 T02000189 10200 20194 53004
TAF
2014/09/20 12:21
TAF KFOE 201120Z 2012/2112 19010KT 3SM BR SKC 
     FM201300 23012KT P6SM SCT090 
     FM202000 27008KT P6SM VCTS BKN040CB 
     FM210200 32006KT P6SM BKN050

Runways

03/21 7000 ft / 150 ft
13/31 12802 ft / 200 ft

Outbound flights

Callsign Flying to Pilot ATD/STD ETA Aircraft

Inbound flights

Callsign Flying from Pilot ATD ETA Aircraft